createdAt,value
2022-10-25T00:04:05.135Z,84.38
2022-10-25T00:09:07.545Z,84.28
2022-10-25T00:14:10.103Z,84.50
2022-10-25T00:19:12.166Z,84.38
2022-10-25T00:24:15.506Z,84.68
2022-10-25T00:29:17.899Z,84.63
2022-10-25T00:34:20.002Z,84.45
2022-10-25T00:39:22.155Z,84.13
2022-10-25T00:44:36.835Z,84.41
2022-10-25T00:49:38.863Z,84.32
2022-10-25T00:54:45.043Z,84.42
2022-10-25T00:59:47.598Z,84.15
2022-10-25T01:04:50.190Z,84.26
2022-10-25T01:09:52.221Z,84.26
2022-10-25T01:14:54.819Z,84.49
2022-10-25T01:20:27.040Z,83.96
2022-10-25T01:26:19.985Z,84.27
2022-10-25T01:31:30.229Z,84.08
2022-10-25T01:36:50.388Z,84.67
2022-10-25T01:42:03.683Z,84.51
2022-10-25T01:47:21.002Z,84.78
2022-10-25T01:52:24.607Z,85.08
2022-10-25T01:57:41.645Z,85.34
2022-10-25T02:02:53.455Z,85.62
2022-10-25T02:08:05.264Z,85.88
2022-10-25T02:13:22.317Z,86.07
2022-10-25T02:18:27.800Z,85.97
2022-10-25T02:23:30.335Z,85.93
2022-10-25T02:28:33.260Z,85.74
2022-10-25T02:33:35.385Z,85.66
2022-10-25T02:38:37.802Z,85.94
2022-10-25T02:43:40.025Z,86.29
2022-10-25T02:48:42.539Z,85.93
2022-10-25T02:53:44.740Z,86.42
2022-10-25T02:58:48.350Z,85.98
2022-10-25T03:03:50.781Z,85.89
2022-10-25T03:08:52.828Z,85.83
2022-10-25T03:13:54.854Z,86.09
2022-10-25T03:18:58.443Z,86.21
2022-10-25T03:24:00.441Z,86.02
2022-10-25T03:29:02.499Z,85.67
2022-10-25T03:34:04.376Z,85.81
2022-10-25T03:39:06.313Z,85.56
2022-10-25T03:44:08.278Z,85.13
2022-10-25T03:49:10.280Z,85.48
2022-10-25T03:54:12.180Z,85.16
2022-10-25T03:59:14.075Z,85.43
2022-10-25T04:04:15.998Z,84.50
2022-10-25T04:09:17.927Z,84.58
2022-10-25T04:14:20.126Z,85.03
2022-10-25T04:19:22.102Z,85.05
2022-10-25T04:24:24.033Z,84.32
2022-10-25T04:29:26.009Z,84.23
2022-10-25T04:34:28.118Z,84.33
2022-10-25T04:39:30.086Z,84.58
2022-10-25T04:44:32.094Z,83.92
2022-10-25T04:49:33.990Z,84.35
2022-10-25T04:54:35.898Z,84.57
2022-10-25T04:59:37.839Z,84.46
2022-10-25T05:04:39.783Z,83.80
2022-10-25T05:09:45.159Z,84.43
2022-10-25T05:14:49.527Z,84.61
2022-10-25T05:19:51.603Z,84.03
2022-10-25T05:24:53.660Z,84.31
2022-10-25T05:29:55.571Z,84.31
2022-10-25T05:34:57.558Z,83.85
2022-10-25T05:39:59.452Z,83.56
2022-10-25T05:45:01.569Z,84.05
2022-10-25T05:50:03.730Z,84.12
2022-10-25T05:55:06.082Z,83.71
2022-10-25T06:00:08.322Z,84.69
2022-10-25T06:05:10.298Z,84.26
2022-10-25T06:10:12.582Z,83.87
2022-10-25T06:15:14.691Z,84.04
2022-10-25T06:20:16.721Z,84.31
2022-10-25T06:25:18.824Z,84.81
2022-10-25T06:30:21.912Z,84.79
2022-10-25T06:35:23.956Z,84.73
2022-10-25T06:40:26.145Z,84.57
2022-10-25T06:45:28.177Z,84.75
2022-10-25T06:50:30.334Z,85.39
2022-10-25T06:55:32.229Z,84.50
2022-10-25T07:00:34.495Z,84.75
2022-10-25T07:05:37.438Z,83.54
2022-10-25T07:10:40.191Z,84.12
2022-10-25T07:15:42.299Z,83.54
2022-10-25T07:20:48.860Z,83.94
2022-10-25T07:25:50.824Z,83.69
2022-10-25T07:30:54.374Z,83.47
2022-10-25T07:36:09.883Z,83.71
2022-10-25T07:41:13.883Z,84.00
2022-10-25T07:46:15.983Z,83.54
2022-10-25T07:51:18.365Z,83.08
2022-10-25T07:56:23.360Z,82.20
2022-10-25T08:01:27.531Z,82.28
2022-10-25T08:06:29.490Z,82.20
2022-10-25T08:11:31.421Z,82.04
2022-10-25T08:16:33.398Z,81.74
2022-10-25T08:21:35.533Z,80.74
2022-10-25T08:26:37.533Z,80.85
2022-10-25T08:31:39.395Z,79.94
2022-10-25T08:36:41.586Z,80.24
2022-10-25T08:41:50.556Z,79.24
2022-10-25T08:46:56.475Z,78.30
2022-10-25T08:51:59.951Z,78.83
2022-10-25T08:57:26.554Z,79.51
2022-10-25T09:02:37.549Z,79.67
2022-10-25T09:07:54.091Z,76.16
2022-10-25T09:18:47.771Z,72.84
2022-10-25T09:24:01.547Z,71.66
2022-10-25T09:29:06.833Z,68.14
2022-10-25T09:34:10.833Z,66.07
2022-10-25T09:39:23.187Z,63.43
2022-10-25T09:44:34.374Z,63.61
2022-10-25T09:50:04.069Z,66.98
2022-10-25T09:55:24.776Z,65.85
2022-10-25T10:00:26.833Z,64.25
2022-10-25T10:05:29.249Z,60.33
2022-10-25T10:10:33.899Z,57.85
2022-10-25T10:15:41.910Z,53.40
2022-10-25T10:20:56.631Z,50.91
2022-10-25T10:26:03.034Z,51.05
2022-10-25T10:31:06.526Z,53.85
2022-10-25T10:36:29.301Z,50.34
2022-10-25T10:41:31.608Z,51.08
2022-10-25T10:46:33.954Z,50.55
2022-10-25T10:51:43.956Z,51.34
2022-10-25T10:56:56.790Z,49.58
2022-10-25T11:02:12.317Z,51.72
2022-10-25T11:07:29.321Z,55.34
2022-10-25T11:12:31.577Z,54.91
2022-10-25T11:17:37.711Z,54.77
2022-10-25T11:22:48.537Z,53.10
2022-10-25T11:28:38.640Z,53.56
2022-10-25T11:34:03.850Z,53.01
2022-10-25T11:40:00.431Z,50.71
2022-10-25T11:45:11.972Z,48.99
2022-10-25T11:50:27.014Z,50.08
2022-10-25T11:55:56.306Z,49.77
2022-10-25T12:01:00.353Z,48.40
2022-10-25T12:06:30.762Z,49.70
2022-10-25T12:11:42.142Z,49.05
2022-10-25T12:16:44.543Z,47.77
2022-10-25T12:21:56.781Z,50.70
2022-10-25T12:27:01.566Z,49.02
2022-10-25T12:32:09.538Z,49.65
2022-10-25T12:37:19.872Z,47.27
2022-10-25T12:42:23.072Z,48.25
2022-10-25T12:47:31.270Z,44.88
2022-10-25T12:52:37.156Z,45.30
2022-10-25T12:57:56.886Z,45.85
2022-10-25T13:03:32.750Z,46.15
2022-10-25T13:08:34.584Z,47.88
2022-10-25T13:13:56.727Z,44.67
2022-10-25T13:19:42.790Z,44.65
2022-10-25T13:24:47.304Z,41.87
2022-10-25T13:30:07.564Z,40.96
2022-10-25T13:35:22.278Z,37.34
2022-10-25T13:40:26.704Z,38.11
2022-10-25T13:45:39.567Z,39.12
2022-10-25T13:50:52.254Z,36.99
2022-10-25T13:55:59.254Z,37.69
2022-10-25T14:01:16.320Z,38.54
2022-10-25T14:06:30.536Z,38.13
2022-10-25T14:11:32.422Z,40.23
2022-10-25T14:16:52.992Z,38.35
2022-10-25T14:21:55.649Z,38.60
2022-10-25T14:27:00.182Z,40.07
2022-10-25T14:32:12.522Z,41.94
2022-10-25T14:37:15.161Z,40.88
2022-10-25T14:42:18.192Z,40.87
2022-10-25T14:47:31.414Z,42.65
2022-10-25T14:52:33.357Z,42.80
2022-10-25T14:57:36.471Z,44.58
2022-10-25T15:02:41.950Z,45.50
2022-10-25T15:07:47.101Z,43.77
2022-10-25T15:12:52.398Z,43.81
2022-10-25T15:17:54.345Z,44.53
2022-10-25T15:23:05.352Z,45.15
2022-10-25T15:28:25.570Z,46.55
2022-10-25T15:33:32.294Z,45.71
2022-10-25T15:39:06.274Z,45.57
2022-10-25T15:43:57.752Z,47.15
2022-10-25T15:49:01.517Z,47.11
2022-10-25T15:54:03.487Z,45.18
2022-10-25T15:59:05.442Z,47.77
2022-10-25T16:04:08.589Z,49.35
2022-10-25T16:09:10.980Z,49.47
2022-10-25T16:14:20.199Z,48.25
2022-10-25T16:19:22.378Z,49.22
2022-10-25T16:24:24.514Z,50.52
2022-10-25T16:29:26.586Z,51.28
2022-10-25T16:34:28.577Z,48.91
2022-10-25T16:39:30.734Z,50.58
2022-10-25T16:44:32.638Z,50.10
2022-10-25T16:49:34.747Z,50.70
2022-10-25T16:54:36.789Z,51.75
2022-10-25T16:59:38.923Z,54.31
2022-10-25T17:04:41.090Z,53.99
2022-10-25T17:09:43.136Z,53.49
2022-10-25T17:14:45.226Z,54.53
2022-10-25T17:19:47.336Z,54.79
2022-10-25T17:24:49.318Z,55.72
2022-10-25T17:29:51.201Z,56.93
2022-10-25T17:34:53.963Z,58.06
2022-10-25T17:39:55.838Z,57.65
2022-10-25T17:44:57.849Z,57.81
2022-10-25T17:50:01.870Z,58.99
2022-10-25T17:55:04.161Z,58.32
2022-10-25T18:00:06.949Z,60.38
2022-10-25T18:05:20.318Z,60.94
2022-10-25T18:10:23.113Z,62.46
2022-10-25T18:15:25.055Z,62.44
2022-10-25T18:20:27.158Z,62.94
2022-10-25T18:25:29.078Z,62.54
2022-10-25T18:30:31.087Z,64.35
2022-10-25T18:35:33.070Z,64.96
2022-10-25T18:40:35.657Z,64.79
2022-10-25T18:45:37.772Z,64.71
2022-10-25T18:50:42.520Z,63.88
2022-10-25T18:55:48.645Z,66.03
2022-10-25T19:00:50.633Z,65.20
2022-10-25T19:05:52.807Z,65.51
2022-10-25T19:10:54.815Z,66.07
2022-10-25T19:15:58.186Z,66.03
2022-10-25T19:21:05.138Z,67.04
2022-10-25T19:26:09.641Z,67.27
2022-10-25T19:31:16.709Z,67.97
2022-10-25T19:36:20.133Z,68.18
2022-10-25T19:41:23.253Z,68.73
2022-10-25T19:46:25.314Z,69.17
2022-10-25T19:51:27.472Z,69.47
2022-10-25T19:56:29.459Z,69.92
2022-10-25T20:01:32.087Z,69.19
2022-10-25T20:06:35.291Z,69.64
2022-10-25T20:11:37.201Z,70.65
2022-10-25T20:16:40.383Z,70.78
2022-10-25T20:21:42.482Z,70.58
2022-10-25T20:26:49.754Z,70.61
2022-10-25T20:31:52.566Z,70.96
2022-10-25T20:36:54.545Z,71.21
2022-10-25T20:41:56.686Z,71.44
2022-10-25T20:46:58.607Z,71.78
2022-10-25T20:52:01.129Z,72.66
2022-10-25T20:57:03.339Z,72.26
2022-10-25T21:02:05.368Z,72.11
2022-10-25T21:07:07.603Z,72.45
2022-10-25T21:12:09.499Z,72.91
2022-10-25T21:17:11.725Z,72.93
2022-10-25T21:22:13.591Z,72.98
2022-10-25T21:27:15.579Z,73.17
2022-10-25T21:32:17.512Z,74.26
2022-10-25T21:37:19.514Z,73.41
2022-10-25T21:42:21.444Z,74.03
2022-10-25T21:47:23.367Z,74.89
2022-10-25T21:52:25.344Z,74.77
2022-10-25T21:57:27.359Z,74.51
2022-10-25T22:02:29.550Z,74.70
2022-10-25T22:07:32.088Z,74.94
2022-10-25T22:12:34.352Z,75.36
2022-10-25T22:17:36.539Z,75.18
2022-10-25T22:22:38.409Z,75.62
2022-10-25T22:27:40.428Z,76.17
2022-10-25T22:32:42.487Z,76.65
2022-10-25T22:37:44.406Z,76.44
2022-10-25T22:42:46.242Z,76.07
2022-10-25T22:47:51.672Z,75.37
2022-10-25T22:52:53.671Z,75.57
2022-10-25T22:57:56.178Z,75.29
2022-10-25T23:02:58.123Z,75.70
2022-10-25T23:08:00.102Z,75.86
2022-10-25T23:13:02.120Z,76.44
2022-10-25T23:18:04.003Z,76.62
2022-10-25T23:23:06.108Z,76.80
2022-10-25T23:28:08.143Z,76.34
2022-10-25T23:33:11.768Z,76.19
2022-10-25T23:38:14.039Z,76.80
2022-10-25T23:43:15.944Z,76.56
2022-10-25T23:48:17.939Z,77.08
2022-10-25T23:53:19.952Z,76.87
2022-10-25T23:58:22.237Z,77.19
